createdAt,value
2022-09-17T00:02:05.908Z,100991.22
2022-09-17T00:04:34.353Z,100989.59
2022-09-17T00:07:05.131Z,100988.31
2022-09-17T00:09:33.396Z,100984.78
2022-09-17T00:12:03.350Z,100992.63
2022-09-17T00:14:32.425Z,101004.63
2022-09-17T00:17:02.931Z,101006.91
2022-09-17T00:19:32.139Z,101023.47
2022-09-17T00:22:02.350Z,101058.00
2022-09-17T00:24:32.435Z,101038.84
2022-09-17T00:27:03.186Z,101024.22
2022-09-17T00:29:33.350Z,101009.47
2022-09-17T00:32:04.809Z,101007.38
2022-09-17T00:34:38.343Z,101005.47
2022-09-17T00:37:12.010Z,101003.16
2022-09-17T00:39:43.497Z,100992.06
2022-09-17T00:42:16.596Z,100992.50
2022-09-17T00:44:51.574Z,100988.34
2022-09-17T00:47:28.124Z,100993.94
2022-09-17T00:50:00.523Z,100991.41
2022-09-17T00:52:33.510Z,101004.28
2022-09-17T00:55:11.069Z,101000.63
2022-09-17T00:57:41.713Z,101011.41
2022-09-17T01:00:11.163Z,101005.84
2022-09-17T01:02:39.446Z,101013.22
2022-09-17T01:05:09.421Z,101015.41
2022-09-17T01:07:54.291Z,101012.63
2022-09-17T01:10:43.934Z,101012.13
2022-09-17T01:13:25.242Z,101011.28
2022-09-17T01:16:10.416Z,101014.03
2022-09-17T01:18:48.779Z,101004.94
2022-09-17T01:21:43.757Z,101001.69
2022-09-17T01:24:40.437Z,101009.03
2022-09-17T01:27:43.678Z,101002.03
2022-09-17T01:30:36.008Z,101000.88
2022-09-17T01:33:12.911Z,101006.19
2022-09-17T01:35:50.493Z,101007.56
2022-09-17T01:38:28.140Z,101019.66
2022-09-17T01:41:07.036Z,101001.59
2022-09-17T01:43:39.308Z,101008.09
2022-09-17T01:46:15.171Z,101009.44
2022-09-17T01:48:50.964Z,101001.59
2022-09-17T01:51:24.653Z,101007.75
2022-09-17T01:53:57.933Z,101009.78
2022-09-17T01:56:32.543Z,101007.38
2022-09-17T01:59:07.461Z,101012.31
2022-09-17T02:01:38.596Z,101013.03
2022-09-17T02:04:12.485Z,101009.94
2022-09-17T02:06:46.926Z,101012.31
2022-09-17T02:09:19.477Z,101008.31
2022-09-17T02:11:58.898Z,101007.56
2022-09-17T02:14:31.065Z,101009.94
2022-09-17T02:17:06.856Z,101013.59
2022-09-17T02:19:39.137Z,101012.19
2022-09-17T02:22:17.179Z,101020.81
2022-09-17T02:24:52.077Z,101028.13
2022-09-17T02:27:26.468Z,101025.50
2022-09-17T02:29:54.447Z,101035.38
2022-09-17T02:32:22.409Z,101031.34
2022-09-17T02:34:52.107Z,101024.63
2022-09-17T02:37:20.289Z,101020.53
2022-09-17T02:39:48.418Z,101022.41
2022-09-17T02:42:23.653Z,101022.44
2022-09-17T02:45:02.023Z,101020.31
2022-09-17T02:47:44.226Z,101029.03
2022-09-17T02:50:35.937Z,101031.03
2022-09-17T02:53:20.637Z,101036.94
2022-09-17T02:55:54.888Z,101025.81
2022-09-17T02:58:28.049Z,101023.94
2022-09-17T03:00:58.646Z,101022.38
2022-09-17T03:03:31.741Z,101011.03
2022-09-17T03:06:01.606Z,101011.03
2022-09-17T03:08:31.269Z,101006.09
2022-09-17T03:10:59.828Z,101015.66
2022-09-17T03:13:27.725Z,101018.09
2022-09-17T03:15:55.715Z,101007.09
2022-09-17T03:18:23.864Z,101011.59
2022-09-17T03:20:51.749Z,101004.88
2022-09-17T03:23:21.013Z,101018.81
2022-09-17T03:25:49.576Z,101013.66
2022-09-17T03:28:17.852Z,101012.13
2022-09-17T03:30:46.662Z,101018.28
2022-09-17T03:33:15.161Z,101025.63
2022-09-17T03:35:43.980Z,101017.34
2022-09-17T03:38:11.913Z,101036.69
2022-09-17T03:40:41.869Z,101045.63
2022-09-17T03:43:10.493Z,101032.66
2022-09-17T03:45:38.331Z,101051.50
2022-09-17T03:48:06.265Z,101027.75
2022-09-17T03:50:36.024Z,101021.13
2022-09-17T03:53:09.216Z,101031.88
2022-09-17T03:55:42.798Z,101023.50
2022-09-17T03:58:14.138Z,101034.25
2022-09-17T04:00:44.688Z,101024.66
2022-09-17T04:03:15.218Z,101025.50
2022-09-17T04:05:45.816Z,101028.53
2022-09-17T04:08:14.573Z,101026.50
2022-09-17T04:10:47.010Z,101029.75
2022-09-17T04:13:19.341Z,101023.91
2022-09-17T04:15:48.927Z,101027.31
2022-09-17T04:18:17.452Z,101023.91
2022-09-17T04:20:47.735Z,101022.06
2022-09-17T04:23:18.155Z,101030.59
2022-09-17T04:25:48.179Z,101027.22
2022-09-17T04:28:17.958Z,101031.81
2022-09-17T04:30:49.815Z,101027.53
2022-09-17T04:33:19.377Z,101038.84
2022-09-17T04:35:49.750Z,101036.81
2022-09-17T04:38:22.351Z,101038.53
2022-09-17T04:40:51.784Z,101034.09
2022-09-17T04:43:20.101Z,101032.03
2022-09-17T04:45:50.057Z,101041.63
2022-09-17T04:48:19.066Z,101038.69
2022-09-17T04:50:48.585Z,101041.56
2022-09-17T04:53:16.790Z,101040.03
2022-09-17T04:55:44.742Z,101039.31
2022-09-17T04:58:16.640Z,101038.88
2022-09-17T05:00:46.227Z,101044.34
2022-09-17T05:03:16.652Z,101047.66
2022-09-17T05:05:47.120Z,101038.63
2022-09-17T05:08:16.825Z,101044.56
2022-09-17T05:10:45.573Z,101041.34
2022-09-17T05:13:16.083Z,101043.56
2022-09-17T05:15:45.682Z,101048.38
2022-09-17T05:18:15.269Z,101044.56
2022-09-17T05:20:46.139Z,101059.44
2022-09-17T05:23:14.554Z,101056.03
2022-09-17T05:25:42.567Z,101063.56
2022-09-17T05:28:12.987Z,101063.44
2022-09-17T05:30:45.736Z,101063.59
2022-09-17T05:33:16.481Z,101067.78
2022-09-17T05:35:45.360Z,101063.88
2022-09-17T05:38:16.127Z,101067.97
2022-09-17T05:40:45.375Z,101071.34
2022-09-17T05:43:13.702Z,101069.63
2022-09-17T05:45:48.150Z,101067.16
2022-09-17T05:48:16.808Z,101063.84
2022-09-17T05:50:44.785Z,101065.53
2022-09-17T05:53:14.878Z,101079.53
2022-09-17T05:55:46.269Z,101095.88
2022-09-17T05:58:18.050Z,101088.50
2022-09-17T06:00:51.557Z,101092.19
2022-09-17T06:03:24.674Z,101094.13
2022-09-17T06:05:55.469Z,101099.84
2022-09-17T06:08:25.661Z,101097.00
2022-09-17T06:11:00.223Z,101084.19
2022-09-17T06:13:33.491Z,101081.66
2022-09-17T06:16:04.964Z,101087.81
2022-09-17T06:18:35.030Z,101090.19
2022-09-17T06:21:05.998Z,101107.44
2022-09-17T06:23:38.202Z,101090.19
2022-09-17T06:26:07.754Z,101098.22
2022-09-17T06:28:41.278Z,101094.97
2022-09-17T06:31:15.128Z,101089.34
2022-09-17T06:33:47.183Z,101086.41
2022-09-17T06:36:15.914Z,101095.47
2022-09-17T06:38:45.550Z,101102.28
2022-09-17T06:41:17.867Z,101094.13
2022-09-17T06:43:47.713Z,101098.88
2022-09-17T06:46:19.509Z,101098.38
2022-09-17T06:48:47.853Z,101097.53
2022-09-17T06:51:16.154Z,101101.63
2022-09-17T06:53:44.190Z,101108.09
2022-09-17T06:56:12.339Z,101099.91
2022-09-17T06:58:41.736Z,101106.72
2022-09-17T07:01:12.127Z,101100.22
2022-09-17T07:03:43.970Z,101107.06
2022-09-17T07:06:12.730Z,101101.41
2022-09-17T07:08:41.645Z,101100.03
2022-09-17T07:11:09.744Z,101098.81
2022-09-17T07:13:37.770Z,101101.53
2022-09-17T07:16:08.004Z,101101.34
2022-09-17T07:18:36.046Z,101108.84
2022-09-17T07:21:07.386Z,101115.03
2022-09-17T07:23:37.505Z,101117.22
2022-09-17T07:26:07.741Z,101116.13
2022-09-17T07:28:35.923Z,101114.94
2022-09-17T07:31:05.855Z,101119.03
2022-09-17T07:33:35.973Z,101120.19
2022-09-17T07:36:07.753Z,101111.34
2022-09-17T07:38:36.025Z,101114.88
2022-09-17T07:41:06.529Z,101113.34
2022-09-17T07:43:36.231Z,101103.09
2022-09-17T07:46:06.529Z,101106.00
2022-09-17T07:48:34.971Z,101110.22
2022-09-17T07:51:07.921Z,101124.22
2022-09-17T07:53:39.200Z,101112.25
2022-09-17T07:56:11.838Z,101125.63
2022-09-17T07:58:42.822Z,101120.69
2022-09-17T08:01:16.040Z,101115.13
2022-09-17T08:03:50.825Z,101116.16
2022-09-17T08:06:23.236Z,101111.72
2022-09-17T08:08:52.096Z,101112.91
2022-09-17T08:11:55.095Z,101110.31
2022-09-17T08:14:17.524Z,101116.63
2022-09-17T08:16:47.848Z,101117.47
2022-09-17T08:19:19.637Z,101115.13
2022-09-17T08:21:51.551Z,101111.72
2022-09-17T08:24:22.526Z,101118.19
2022-09-17T08:26:54.108Z,101117.69
2022-09-17T08:29:24.027Z,101105.13
2022-09-17T08:31:54.237Z,101104.63
2022-09-17T08:34:26.028Z,101111.94
2022-09-17T08:36:58.651Z,101103.88
2022-09-17T08:39:30.005Z,101099.16
2022-09-17T08:42:12.806Z,101112.41
2022-09-17T08:44:47.014Z,101112.97
2022-09-17T08:47:28.618Z,101127.03
2022-09-17T08:49:59.794Z,101160.56
2022-09-17T08:52:55.094Z,101159.28
2022-09-17T08:55:34.035Z,101136.13
2022-09-17T08:58:46.737Z,101132.44
2022-09-17T09:01:26.556Z,101129.84
2022-09-17T09:04:21.698Z,101137.84
2022-09-17T09:06:58.404Z,101145.72
2022-09-17T09:09:39.459Z,101137.22
2022-09-17T09:12:24.544Z,101124.69
2022-09-17T09:15:00.009Z,101123.16
2022-09-17T09:17:33.681Z,101118.72
2022-09-17T09:20:05.991Z,101125.75
2022-09-17T09:22:54.868Z,101125.88
2022-09-17T09:25:31.585Z,101128.97
2022-09-17T09:28:17.477Z,101195.84
2022-09-17T09:31:00.731Z,101162.72
2022-09-17T09:33:35.759Z,101146.00
2022-09-17T09:36:08.543Z,101146.53
2022-09-17T09:38:45.958Z,101148.38
2022-09-17T09:41:27.477Z,101140.03
2022-09-17T09:44:04.449Z,101146.50
2022-09-17T09:47:00.004Z,101138.41
2022-09-17T09:49:44.692Z,101139.06
2022-09-17T09:52:27.312Z,101133.22
2022-09-17T09:55:30.455Z,101137.22
2022-09-17T09:58:21.160Z,101122.53
2022-09-17T10:00:53.031Z,101135.63
2022-09-17T10:03:32.535Z,101131.16
2022-09-17T10:06:05.554Z,101131.88
2022-09-17T10:08:39.090Z,101125.19
2022-09-17T10:11:20.972Z,101135.09
2022-09-17T10:13:56.936Z,101135.22
2022-09-17T10:16:32.441Z,101141.72
2022-09-17T10:19:17.303Z,101141.25
2022-09-17T10:21:46.685Z,101129.31
2022-09-17T10:24:28.355Z,101141.63
2022-09-17T10:27:06.343Z,101138.72
2022-09-17T10:29:42.709Z,101126.63
2022-09-17T10:32:23.658Z,101129.25
2022-09-17T10:35:06.385Z,101127.69
2022-09-17T10:37:46.502Z,101131.56
2022-09-17T10:40:39.566Z,101123.50
2022-09-17T10:43:28.262Z,101118.31
2022-09-17T10:46:03.464Z,101117.72
2022-09-17T10:48:40.256Z,101121.22
2022-09-17T10:51:11.893Z,101128.00
2022-09-17T10:54:11.049Z,101124.72
2022-09-17T10:56:44.455Z,101120.72
2022-09-17T10:59:41.808Z,101122.84
2022-09-17T11:02:42.295Z,101113.88
2022-09-17T11:05:35.429Z,101096.84
2022-09-17T11:08:13.204Z,101104.34
2022-09-17T11:10:51.381Z,101112.31
2022-09-17T11:13:31.006Z,101128.09
2022-09-17T11:16:12.559Z,101101.84
2022-09-17T11:18:51.852Z,101113.72
2022-09-17T11:21:41.360Z,101105.53
2022-09-17T11:24:58.241Z,101099.03
2022-09-17T11:27:40.990Z,101101.13
2022-09-17T11:30:17.884Z,101098.38
2022-09-17T11:33:26.103Z,101113.72
2022-09-17T11:36:01.989Z,101110.78
2022-09-17T11:38:39.192Z,101131.88
2022-09-17T11:41:14.651Z,101094.63
2022-09-17T11:43:54.336Z,101116.56
2022-09-17T11:46:27.106Z,101098.66
2022-09-17T11:49:03.170Z,101130.94
2022-09-17T11:51:37.489Z,101101.50
2022-09-17T11:54:09.630Z,101097.94
2022-09-17T11:56:45.845Z,101101.88
2022-09-17T11:59:22.279Z,101101.16
2022-09-17T12:02:00.226Z,101104.06
2022-09-17T12:04:41.056Z,101100.84
2022-09-17T12:07:25.721Z,101097.25
2022-09-17T12:10:02.356Z,101103.56
2022-09-17T12:12:49.829Z,101104.88
2022-09-17T12:15:23.705Z,101104.56
2022-09-17T12:18:30.478Z,101103.97
2022-09-17T12:21:01.114Z,101103.31
2022-09-17T12:23:40.143Z,101123.81
2022-09-17T12:26:29.916Z,101118.41
2022-09-17T12:29:06.978Z,101132.53
2022-09-17T12:31:46.261Z,101126.50
2022-09-17T12:34:29.203Z,101121.47
2022-09-17T12:37:08.481Z,101115.78
2022-09-17T12:40:12.074Z,101113.19
2022-09-17T12:42:58.373Z,101117.22
2022-09-17T12:45:38.718Z,101109.63
2022-09-17T12:48:30.293Z,101139.47
2022-09-17T12:51:12.112Z,101126.22
2022-09-17T12:53:47.618Z,101116.06
2022-09-17T12:56:29.607Z,101116.56
2022-09-17T12:59:12.051Z,101121.94
2022-09-17T13:01:49.897Z,101129.16
2022-09-17T13:05:07.306Z,101105.34
2022-09-17T13:08:05.150Z,101105.78
2022-09-17T13:10:48.922Z,101108.63
2022-09-17T13:13:39.450Z,101119.91
2022-09-17T13:16:20.079Z,101111.59
2022-09-17T13:19:15.497Z,101125.06
2022-09-17T13:21:56.462Z,101124.69
2022-09-17T13:24:31.070Z,101140.50
2022-09-17T13:27:02.971Z,101124.06
2022-09-17T13:30:02.326Z,101114.81
2022-09-17T13:32:48.546Z,101111.91
2022-09-17T13:35:50.843Z,101110.97
2022-09-17T13:38:24.397Z,101117.38
2022-09-17T13:41:15.919Z,101107.66
2022-09-17T13:43:50.750Z,101119.91
2022-09-17T13:46:29.151Z,101122.59
2022-09-17T13:49:03.733Z,101129.59
2022-09-17T13:52:00.751Z,101127.44
2022-09-17T13:54:43.644Z,101138.44
2022-09-17T13:57:18.313Z,101119.50
2022-09-17T13:59:56.276Z,101129.59
2022-09-17T14:02:33.088Z,101117.94
2022-09-17T14:05:32.478Z,101129.72
2022-09-17T14:08:41.007Z,101139.28
2022-09-17T14:11:39.499Z,101143.50
2022-09-17T14:14:41.752Z,101157.25
2022-09-17T14:17:12.959Z,101171.19
2022-09-17T14:19:51.937Z,101166.06
2022-09-17T14:22:26.948Z,101154.22
2022-09-17T14:24:55.912Z,101153.34
2022-09-17T14:27:44.508Z,101159.84
2022-09-17T14:30:19.341Z,101160.66
2022-09-17T14:33:05.580Z,101185.97
2022-09-17T14:35:42.762Z,101161.47
2022-09-17T14:38:19.889Z,101160.03
2022-09-17T14:40:54.865Z,101163.78
2022-09-17T14:43:36.828Z,101152.72
2022-09-17T14:46:07.861Z,101155.56
2022-09-17T14:48:38.603Z,101154.44
2022-09-17T14:51:31.153Z,101143.91
2022-09-17T14:54:17.384Z,101155.50
2022-09-17T14:56:52.578Z,101155.28
2022-09-17T14:59:33.201Z,101141.59
2022-09-17T15:02:03.658Z,101154.94
2022-09-17T15:04:33.441Z,101149.75
2022-09-17T15:07:13.690Z,101142.72
2022-09-17T15:09:44.708Z,101152.38
2022-09-17T15:12:20.992Z,101142.25
2022-09-17T15:14:51.139Z,101152.53
2022-09-17T15:17:21.600Z,101149.78
2022-09-17T15:19:54.932Z,101156.41
2022-09-17T15:22:28.234Z,101167.38
2022-09-17T15:25:03.310Z,101164.19
2022-09-17T15:27:35.972Z,101184.81
2022-09-17T15:30:12.375Z,101176.41
2022-09-17T15:32:50.919Z,101171.13
2022-09-17T15:35:23.472Z,101173.72
2022-09-17T15:40:48.465Z,101160.38
2022-09-17T15:43:23.299Z,101160.16
2022-09-17T15:45:53.582Z,101181.00
2022-09-17T15:48:37.554Z,101205.09
2022-09-17T15:51:08.080Z,101198.16
2022-09-17T15:53:40.250Z,101193.00
2022-09-17T15:56:17.647Z,101193.16
2022-09-17T15:58:57.228Z,101194.50
2022-09-17T16:01:56.987Z,101165.66
2022-09-17T16:04:33.103Z,101172.41
2022-09-17T16:07:20.187Z,101170.53
2022-09-17T16:09:54.392Z,101163.81
2022-09-17T16:12:28.202Z,101164.47
2022-09-17T16:15:02.357Z,101167.91
2022-09-17T16:17:37.636Z,101169.88
2022-09-17T16:20:12.270Z,101170.00
2022-09-17T16:22:41.339Z,101160.09
2022-09-17T16:25:13.342Z,101170.25
2022-09-17T16:27:49.426Z,101183.59
2022-09-17T16:30:21.552Z,101191.09
2022-09-17T16:32:52.469Z,101177.00
2022-09-17T16:35:24.035Z,101177.56
2022-09-17T16:37:57.844Z,101196.34
2022-09-17T16:40:31.172Z,101195.13
2022-09-17T16:43:03.641Z,101189.50
2022-09-17T16:45:32.953Z,101192.91
2022-09-17T16:48:02.726Z,101190.94
2022-09-17T16:50:31.408Z,101196.25
2022-09-17T16:53:05.534Z,101193.81
2022-09-17T16:55:36.180Z,101192.53
2022-09-17T16:58:05.474Z,101187.72
2022-09-17T17:00:37.454Z,101195.19
2022-09-17T17:03:06.886Z,101194.66
2022-09-17T17:05:40.160Z,101196.91
2022-09-17T17:08:12.986Z,101208.50
2022-09-17T17:10:42.801Z,101205.56
2022-09-17T17:13:14.001Z,101200.06
2022-09-17T17:15:45.456Z,101203.13
2022-09-17T17:18:16.248Z,101198.94
2022-09-17T17:20:49.043Z,101194.88
2022-09-17T17:23:18.925Z,101204.59
2022-09-17T17:25:49.618Z,101203.75
2022-09-17T17:28:17.928Z,101198.63
2022-09-17T17:30:50.663Z,101195.81
2022-09-17T17:33:21.575Z,101197.53
2022-09-17T17:35:51.857Z,101198.81
2022-09-17T17:38:24.166Z,101195.00
2022-09-17T17:41:07.789Z,101205.09
2022-09-17T17:43:36.666Z,101210.09
2022-09-17T17:46:08.119Z,101212.19
2022-09-17T17:48:36.859Z,101220.19
2022-09-17T17:51:09.890Z,101223.13
2022-09-17T17:53:44.047Z,101221.94
2022-09-17T17:56:20.139Z,101240.53
2022-09-17T17:58:56.278Z,101251.50
2022-09-17T18:01:30.452Z,101255.50
2022-09-17T18:04:03.321Z,101251.59
2022-09-17T18:06:35.450Z,101256.34
2022-09-17T18:09:08.495Z,101242.69
2022-09-17T18:11:41.136Z,101238.56
2022-09-17T18:14:14.386Z,101240.97
2022-09-17T18:16:45.674Z,101236.84
2022-09-17T18:19:16.854Z,101239.44
2022-09-17T18:21:50.258Z,101234.63
2022-09-17T18:24:19.894Z,101238.22
2022-09-17T18:26:52.513Z,101241.09
2022-09-17T18:29:24.881Z,101244.09
2022-09-17T18:31:56.866Z,101245.84
2022-09-17T18:34:26.501Z,101250.31
2022-09-17T18:36:58.972Z,101241.81
2022-09-17T18:39:57.860Z,101255.31
2022-09-17T18:42:20.865Z,101263.72
2022-09-17T18:44:50.294Z,101262.38
2022-09-17T18:47:19.082Z,101259.19
2022-09-17T18:49:50.161Z,101258.13
2022-09-17T18:52:19.077Z,101255.38
2022-09-17T18:54:51.014Z,101252.97
2022-09-17T18:57:23.822Z,101257.59
2022-09-17T18:59:52.128Z,101254.31
2022-09-17T19:02:20.227Z,101257.19
2022-09-17T19:04:48.255Z,101256.00
2022-09-17T19:07:16.484Z,101255.31
2022-09-17T19:09:45.038Z,101264.56
2022-09-17T19:12:13.144Z,101252.03
2022-09-17T19:14:42.540Z,101248.94
2022-09-17T19:17:10.593Z,101259.25
2022-09-17T19:19:38.590Z,101253.41
2022-09-17T19:22:08.177Z,101260.25
2022-09-17T19:24:36.665Z,101260.91
2022-09-17T19:27:05.355Z,101272.94
2022-09-17T19:29:34.514Z,101271.19
2022-09-17T19:32:05.125Z,101277.00
2022-09-17T19:34:33.696Z,101277.63
2022-09-17T19:37:02.479Z,101276.72
2022-09-17T19:39:30.407Z,101283.69
2022-09-17T19:41:58.767Z,101277.72
2022-09-17T19:44:27.065Z,101276.84
2022-09-17T19:46:55.477Z,101274.25
2022-09-17T19:49:25.061Z,101273.72
2022-09-17T19:51:52.976Z,101271.72
2022-09-17T19:54:21.057Z,101279.78
2022-09-17T19:56:49.669Z,101272.59
2022-09-17T19:59:18.062Z,101275.72
2022-09-17T20:01:49.630Z,101283.63
2022-09-17T20:04:20.817Z,101267.25
2022-09-17T20:06:53.370Z,101273.38
2022-09-17T20:09:24.680Z,101287.63
2022-09-17T20:11:55.494Z,101302.13
2022-09-17T20:14:23.888Z,101309.66
2022-09-17T20:16:51.894Z,101306.94
2022-09-17T20:19:21.632Z,101294.09
2022-09-17T20:21:54.075Z,101291.88
2022-09-17T20:24:24.660Z,101284.88
2022-09-17T20:26:54.709Z,101285.41
2022-09-17T20:29:24.857Z,101288.97
2022-09-17T20:31:54.547Z,101281.78
2022-09-17T20:34:23.725Z,101273.22
2022-09-17T20:37:06.709Z,101278.28
2022-09-17T20:39:42.006Z,101282.91
2022-09-17T20:42:11.796Z,101299.03
2022-09-17T20:44:40.832Z,101297.66
2022-09-17T20:47:10.712Z,101306.59
2022-09-17T20:49:40.677Z,101289.34
2022-09-17T20:52:10.351Z,101277.03
2022-09-17T20:54:38.831Z,101278.59
2022-09-17T20:57:06.823Z,101277.56
2022-09-17T20:59:51.209Z,101275.16
2022-09-17T21:02:21.055Z,101277.69
2022-09-17T21:04:51.182Z,101282.00
2022-09-17T21:07:20.653Z,101283.00
2022-09-17T21:09:48.954Z,101272.41
2022-09-17T21:12:16.975Z,101277.88
2022-09-17T21:14:44.969Z,101281.78
2022-09-17T21:17:13.171Z,101277.69
2022-09-17T21:19:41.123Z,101286.41
2022-09-17T21:22:09.094Z,101283.31
2022-09-17T21:24:38.706Z,101282.78
2022-09-17T21:27:07.342Z,101287.22
2022-09-17T21:29:35.709Z,101284.81
2022-09-17T21:32:04.346Z,101280.53
2022-09-17T21:34:33.047Z,101279.16
2022-09-17T21:37:04.248Z,101284.78
2022-09-17T21:39:34.940Z,101287.16
2022-09-17T21:42:05.532Z,101285.28
2022-09-17T21:44:34.194Z,101287.53
2022-09-17T21:47:02.173Z,101288.72
2022-09-17T21:49:30.526Z,101289.06
2022-09-17T21:51:58.467Z,101291.31
2022-09-17T21:54:29.041Z,101290.16
2022-09-17T21:57:01.044Z,101286.03
2022-09-17T21:59:31.377Z,101287.06
2022-09-17T22:02:00.385Z,101287.22
2022-09-17T22:04:29.825Z,101283.78
2022-09-17T22:06:59.202Z,101285.28
2022-09-17T22:09:30.752Z,101285.97
2022-09-17T22:12:02.524Z,101286.13
2022-09-17T22:14:34.987Z,101275.03
2022-09-17T22:17:05.236Z,101277.41
2022-09-17T22:19:36.841Z,101285.06
2022-09-17T22:22:05.859Z,101284.56
2022-09-17T22:24:39.491Z,101283.91
2022-09-17T22:27:07.972Z,101284.25
2022-09-17T22:29:39.833Z,101288.88
2022-09-17T22:32:08.599Z,101284.91
2022-09-17T22:34:37.040Z,101285.84
2022-09-17T22:37:06.417Z,101280.34
2022-09-17T22:39:35.840Z,101282.75
2022-09-17T22:42:06.004Z,101279.16
2022-09-17T22:44:36.950Z,101284.63
2022-09-17T22:47:12.969Z,101275.53
2022-09-17T22:49:46.997Z,101282.09
2022-09-17T22:52:15.675Z,101276.78
2022-09-17T22:54:44.999Z,101277.47
2022-09-17T22:57:15.765Z,101264.31
2022-09-17T22:59:44.674Z,101272.88
2022-09-17T23:02:15.213Z,101268.25
2022-09-17T23:04:44.476Z,101268.63
2022-09-17T23:07:16.301Z,101264.50
2022-09-17T23:09:45.691Z,101271.03
2022-09-17T23:12:14.628Z,101269.47
2022-09-17T23:14:47.152Z,101276.31
2022-09-17T23:17:17.488Z,101297.72
2022-09-17T23:19:47.311Z,101310.03
2022-09-17T23:22:15.948Z,101307.31
2022-09-17T23:24:45.072Z,101267.13
2022-09-17T23:27:14.791Z,101274.84
2022-09-17T23:29:43.418Z,101264.72
2022-09-17T23:32:11.938Z,101259.97
2022-09-17T23:34:42.898Z,101258.91
2022-09-17T23:37:12.456Z,101258.91
2022-09-17T23:39:42.524Z,101249.00
2022-09-17T23:42:11.871Z,101255.16
2022-09-17T23:44:40.920Z,101252.25
2022-09-17T23:47:09.940Z,101245.75
2022-09-17T23:49:38.709Z,101247.63
2022-09-17T23:52:09.665Z,101243.72
2022-09-17T23:54:39.356Z,101241.50
2022-09-17T23:57:08.468Z,101242.34
2022-09-17T23:59:37.691Z,101231.75
